createdAt,value
2018-05-16T00:00:17.468Z,6.60
2018-05-16T00:04:27.649Z,8.03
2018-05-16T00:08:34.037Z,7.80
2018-05-16T00:12:43.834Z,8.03
2018-05-16T00:16:49.771Z,7.93
2018-05-16T00:21:00.822Z,7.17
2018-05-16T00:25:07.280Z,6.70
2018-05-16T00:29:19.890Z,5.93
2018-05-16T00:33:29.434Z,8.33
2018-05-16T00:37:35.794Z,8.83
2018-05-16T00:41:45.699Z,7.90
2018-05-16T00:45:55.769Z,7.72
2018-05-16T00:49:59.635Z,7.80
2018-05-16T00:54:11.078Z,6.23
2018-05-16T00:58:21.796Z,7.17
2018-05-16T01:02:27.448Z,7.73
2018-05-16T01:06:37.370Z,8.43
2018-05-16T01:10:41.275Z,6.20
2018-05-16T01:14:52.679Z,6.33
2018-05-16T01:19:00.197Z,8.53
2018-05-16T01:23:13.115Z,6.33
2018-05-16T01:27:19.544Z,7.60
2018-05-16T01:31:29.859Z,8.77
2018-05-16T01:35:35.415Z,7.97
2018-05-16T01:39:48.410Z,7.33
2018-05-16T01:43:57.265Z,5.57
2018-05-16T01:48:03.762Z,8.27
2018-05-16T01:52:11.383Z,7.90
2018-05-16T01:56:21.597Z,6.37
2018-05-16T02:00:32.700Z,5.60
2018-05-16T02:04:35.508Z,6.63
2018-05-16T02:08:46.316Z,5.30
2018-05-16T02:12:53.539Z,5.73
2018-05-16T02:17:07.315Z,5.83
2018-05-16T02:21:12.665Z,9.07
2018-05-16T02:25:21.395Z,5.90
2018-05-16T02:29:33.276Z,5.70
2018-05-16T02:33:39.098Z,9.13
2018-05-16T02:37:46.397Z,6.53
2018-05-16T02:41:59.860Z,4.27
2018-05-16T02:46:06.521Z,6.67
2018-05-16T02:50:15.293Z,5.73
2018-05-16T02:54:22.958Z,4.53
2018-05-16T02:58:32.450Z,5.93
2018-05-16T03:02:41.656Z,6.17
2018-05-16T03:06:47.274Z,6.00
2018-05-16T03:10:54.466Z,7.30
2018-05-16T03:15:03.988Z,6.30
2018-05-16T03:19:16.752Z,5.63
2018-05-16T03:23:21.650Z,4.20
2018-05-16T03:27:34.634Z,7.40
2018-05-16T03:31:44.254Z,6.20
2018-05-16T03:35:46.883Z,6.43
2018-05-16T03:39:59.254Z,8.13
2018-05-16T03:44:08.773Z,6.87
2018-05-16T03:48:19.019Z,6.27
2018-05-16T03:52:24.678Z,8.60
2018-05-16T03:56:34.348Z,7.37
2018-05-16T04:00:48.986Z,5.93
2018-05-16T04:04:53.824Z,8.23
2018-05-16T04:08:57.543Z,5.97
2018-05-16T04:13:08.599Z,6.93
2018-05-16T04:17:17.703Z,5.90
2018-05-16T04:21:27.482Z,7.17
2018-05-16T04:25:33.148Z,8.57
2018-05-16T04:29:43.957Z,7.17
2018-05-16T04:33:53.977Z,5.83
2018-05-16T04:37:59.745Z,5.73
2018-05-16T04:42:07.286Z,5.40
2018-05-16T04:46:24.903Z,9.83
2018-05-16T04:50:34.660Z,8.63
2018-05-16T04:54:45.041Z,6.90
2018-05-16T04:59:01.641Z,5.50
2018-05-16T05:03:08.014Z,8.33
2018-05-16T05:07:20.852Z,7.73
2018-05-16T05:11:30.037Z,9.10
2018-05-16T05:15:35.657Z,11.80
2018-05-16T05:19:46.190Z,13.67
2018-05-16T05:23:55.601Z,9.27
2018-05-16T05:28:01.875Z,10.07
2018-05-16T05:32:08.249Z,10.60
2018-05-16T05:36:17.262Z,12.27
2018-05-16T05:40:25.804Z,7.77
2018-05-16T05:44:35.623Z,8.10
2018-05-16T05:48:44.888Z,11.23
2018-05-16T05:52:54.442Z,9.03
2018-05-16T05:57:01.989Z,8.83
2018-05-16T06:01:10.698Z,8.87
2018-05-16T06:05:21.814Z,9.30
2018-05-16T06:09:34.258Z,6.93
2018-05-16T06:13:40.896Z,8.00
2018-05-16T06:17:51.757Z,5.97
2018-05-16T06:21:57.392Z,6.70
2018-05-16T06:26:07.247Z,9.43
2018-05-16T06:34:14.466Z,7.33
2018-05-16T06:38:30.994Z,9.27
2018-05-16T06:42:37.354Z,8.63
2018-05-16T06:46:40.888Z,8.70
2018-05-16T06:50:50.329Z,8.23
2018-05-16T06:54:59.598Z,12.97
2018-05-16T06:59:08.662Z,9.90
2018-05-16T07:03:18.459Z,14.33
2018-05-16T07:07:22.214Z,10.30
2018-05-16T07:11:31.703Z,10.23
2018-05-16T07:15:41.330Z,12.27
2018-05-16T07:19:50.597Z,11.13
2018-05-16T07:23:58.886Z,12.70
2018-05-16T07:28:07.975Z,12.00
2018-05-16T07:32:18.103Z,14.37
2018-05-16T07:36:28.119Z,9.40
2018-05-16T07:40:34.467Z,10.43
2018-05-16T07:44:44.347Z,11.77
2018-05-16T07:48:54.394Z,11.20
2018-05-16T07:53:03.555Z,12.77
2018-05-16T07:57:12.366Z,15.43
2018-05-16T08:01:15.565Z,15.70
2018-05-16T08:05:26.170Z,12.27
2018-05-16T08:09:38.920Z,11.60
2018-05-16T08:13:48.426Z,12.03
2018-05-16T08:17:57.584Z,15.30
2018-05-16T08:22:06.650Z,11.30
2018-05-16T08:26:16.653Z,12.27
2018-05-16T08:30:22.815Z,11.80
2018-05-16T08:34:33.140Z,10.63
2018-05-16T08:38:38.998Z,10.97
2018-05-16T08:42:50.187Z,11.80
2018-05-16T08:46:55.846Z,12.23
2018-05-16T08:51:11.163Z,12.17
2018-05-16T08:55:15.168Z,9.60
2018-05-16T08:59:25.276Z,13.33
2018-05-16T09:03:34.923Z,11.50
2018-05-16T09:07:45.232Z,13.17
2018-05-16T09:11:51.604Z,12.33
2018-05-16T09:16:01.625Z,14.33
2018-05-16T09:20:09.595Z,11.83
2018-05-16T09:24:18.477Z,12.10
2018-05-16T09:28:27.283Z,14.77
2018-05-16T09:32:36.920Z,11.17
2018-05-16T09:36:43.397Z,10.60
2018-05-16T09:40:52.214Z,11.00
2018-05-16T09:45:03.398Z,12.83
2018-05-16T09:49:09.768Z,8.67
2018-05-16T09:53:19.751Z,12.57
2018-05-16T09:57:29.725Z,12.00
2018-05-16T10:01:36.100Z,11.73
2018-05-16T10:05:45.834Z,10.50
2018-05-16T10:09:54.765Z,11.17
2018-05-16T10:14:04.553Z,10.03
2018-05-16T10:18:10.737Z,11.30
2018-05-16T10:22:20.873Z,9.60
2018-05-16T10:26:30.644Z,8.37
2018-05-16T10:30:37.255Z,9.83
2018-05-16T10:34:46.881Z,10.63
2018-05-16T10:38:56.768Z,7.50
2018-05-16T10:43:06.771Z,11.43
2018-05-16T10:47:13.140Z,12.60
2018-05-16T10:51:24.651Z,10.50
2018-05-16T10:55:34.709Z,8.90
2018-05-16T10:59:41.636Z,8.57
2018-05-16T11:03:50.293Z,7.47
2018-05-16T11:08:00.638Z,11.53
2018-05-16T11:12:06.222Z,11.50
2018-05-16T11:16:16.868Z,8.37
2018-05-16T11:20:26.110Z,10.47
2018-05-16T11:24:39.708Z,8.70
2018-05-16T11:28:51.520Z,8.80
2018-05-16T11:32:54.928Z,11.87
2018-05-16T11:37:04.924Z,8.67
2018-05-16T11:41:10.792Z,8.97
2018-05-16T11:45:21.163Z,11.03
2018-05-16T11:49:31.783Z,10.02
2018-05-16T11:53:37.432Z,9.70
2018-05-16T11:57:48.135Z,6.93
2018-05-16T12:01:58.157Z,7.50
2018-05-16T12:06:07.570Z,8.23
2018-05-16T12:10:20.257Z,7.33
2018-05-16T12:14:29.556Z,6.30
2018-05-16T12:18:39.618Z,4.67
2018-05-16T12:22:51.924Z,5.50
2018-05-16T12:26:56.671Z,5.20
2018-05-16T12:31:08.862Z,8.03
2018-05-16T12:39:43.196Z,5.03
2018-05-16T12:44:03.835Z,8.37
2018-05-16T12:48:14.690Z,5.73
2018-05-16T12:52:20.663Z,8.23
2018-05-16T12:56:33.767Z,7.50
2018-05-16T13:00:39.653Z,6.50
2018-05-16T13:04:52.133Z,10.80
2018-05-16T13:08:58.413Z,11.13
2018-05-16T13:13:08.390Z,7.97
2018-05-16T13:17:12.662Z,10.67
2018-05-16T13:21:25.860Z,11.90
2018-05-16T13:25:32.269Z,9.70
2018-05-16T13:29:42.203Z,8.93
2018-05-16T13:33:52.474Z,12.90
2018-05-16T13:37:59.205Z,9.53
2018-05-16T13:42:06.509Z,12.97
2018-05-16T13:46:15.649Z,13.23
2018-05-16T13:50:26.352Z,12.03
2018-05-16T13:54:32.855Z,11.30
2018-05-16T13:58:44.175Z,15.60
2018-05-16T14:02:48.542Z,14.83
2018-05-16T14:06:58.191Z,13.30
2018-05-16T14:11:07.720Z,16.67
2018-05-16T14:15:17.966Z,16.17
2018-05-16T14:19:30.603Z,15.00
2018-05-16T14:23:38.032Z,21.40
2018-05-16T14:27:48.614Z,16.03
2018-05-16T14:31:58.600Z,12.20
2018-05-16T14:36:08.538Z,18.80
2018-05-16T14:40:13.242Z,18.70
2018-05-16T14:44:24.112Z,19.47
2018-05-16T14:48:34.633Z,19.13
2018-05-16T14:52:43.256Z,18.97
2018-05-16T14:56:53.679Z,20.13
2018-05-16T15:01:06.755Z,18.37
2018-05-16T15:05:30.322Z,10.17
2018-05-16T15:09:42.526Z,9.37
2018-05-16T15:14:04.405Z,9.57
2018-05-16T15:18:08.801Z,10.60
2018-05-16T15:22:11.660Z,8.00
2018-05-16T15:26:22.848Z,14.03
2018-05-16T15:30:32.318Z,9.43
2018-05-16T15:34:38.723Z,10.67
2018-05-16T15:38:52.274Z,9.70
2018-05-16T15:42:58.943Z,11.80
2018-05-16T15:47:05.285Z,9.30
2018-05-16T15:51:19.098Z,9.23
2018-05-16T15:55:27.539Z,11.63
2018-05-16T16:04:17.236Z,10.13
2018-05-16T16:08:23.363Z,10.80
2018-05-16T16:12:34.219Z,12.20
2018-05-16T16:21:14.838Z,12.57
2018-05-16T16:25:19.207Z,11.70
2018-05-16T16:29:22.879Z,12.47
2018-05-16T16:33:28.435Z,11.17
2018-05-16T16:37:39.561Z,19.00
2018-05-16T16:41:49.091Z,14.00
2018-05-16T16:45:55.808Z,14.13
2018-05-16T16:50:05.693Z,16.23
2018-05-16T16:54:14.891Z,11.60
2018-05-16T16:58:21.296Z,10.97
2018-05-16T17:02:30.596Z,8.77
2018-05-16T17:06:43.118Z,10.07
2018-05-16T17:10:51.640Z,18.43
2018-05-16T17:15:01.976Z,11.93
2018-05-16T17:19:07.636Z,14.40
2018-05-16T17:23:20.289Z,10.70
2018-05-16T17:27:26.643Z,11.73
2018-05-16T17:31:35.987Z,9.43
2018-05-16T17:35:50.497Z,18.10
2018-05-16T17:39:57.284Z,12.03
2018-05-16T17:44:06.399Z,12.13
2018-05-16T17:48:17.143Z,11.80
2018-05-16T17:52:26.570Z,15.40
2018-05-16T17:56:32.252Z,8.33
2018-05-16T18:00:42.282Z,11.37
2018-05-16T18:04:54.907Z,10.77
2018-05-16T18:09:10.182Z,11.20
2018-05-16T18:13:33.630Z,13.67
2018-05-16T18:17:42.561Z,22.67
2018-05-16T18:22:04.657Z,12.43
2018-05-16T18:26:15.282Z,13.40
2018-05-16T18:30:21.907Z,10.60
2018-05-16T18:34:33.424Z,14.87
2018-05-16T18:38:42.649Z,14.20
2018-05-16T18:42:48.516Z,15.17
2018-05-16T18:46:55.753Z,12.30
2018-05-16T18:51:12.613Z,18.13
2018-05-16T18:55:17.367Z,11.87
2018-05-16T18:59:27.305Z,14.80
2018-05-16T19:03:33.722Z,14.33
2018-05-16T19:07:44.843Z,15.37
2018-05-16T19:11:48.261Z,16.53
2018-05-16T19:16:01.718Z,17.00
2018-05-16T19:20:14.873Z,16.30
2018-05-16T19:24:24.679Z,20.13
2018-05-16T19:28:34.751Z,14.23
2018-05-16T19:32:41.181Z,14.23
2018-05-16T19:36:49.897Z,16.63
2018-05-16T19:40:56.247Z,16.23
2018-05-16T19:45:09.658Z,14.30
2018-05-16T19:49:15.756Z,18.27
2018-05-16T19:53:28.583Z,14.80
2018-05-16T19:57:35.875Z,12.77
2018-05-16T20:01:45.295Z,12.57
2018-05-16T20:05:51.501Z,16.03
2018-05-16T20:10:07.113Z,14.00
2018-05-16T20:14:13.179Z,13.63
2018-05-16T20:18:19.988Z,11.10
2018-05-16T20:22:29.640Z,13.57
2018-05-16T20:26:39.454Z,10.70
2018-05-16T20:30:48.862Z,13.47
2018-05-16T20:34:55.211Z,13.30
2018-05-16T20:39:05.929Z,14.97
2018-05-16T20:43:24.890Z,14.57
2018-05-16T20:47:37.898Z,17.40
2018-05-16T20:51:47.102Z,13.77
2018-05-16T20:55:53.607Z,14.53
2018-05-16T21:00:06.323Z,16.07
2018-05-16T21:04:15.529Z,10.53
2018-05-16T21:08:26.603Z,12.77
2018-05-16T21:12:32.302Z,11.17
2018-05-16T21:16:41.835Z,12.33
2018-05-16T21:20:50.917Z,15.70
2018-05-16T21:24:57.417Z,18.67
2018-05-16T21:29:08.382Z,16.83
2018-05-16T21:33:17.728Z,14.90
2018-05-16T21:37:26.922Z,16.63
2018-05-16T21:41:32.656Z,14.03
2018-05-16T21:45:42.884Z,19.23
2018-05-16T21:49:52.586Z,21.93
2018-05-16T21:54:02.199Z,13.93
2018-05-16T21:58:07.832Z,13.37
2018-05-16T22:02:18.125Z,15.23
2018-05-16T22:06:28.122Z,10.10
2018-05-16T22:10:37.374Z,17.83
2018-05-16T22:14:46.870Z,17.00
2018-05-16T22:18:53.189Z,13.57
2018-05-16T22:23:03.905Z,11.33
2018-05-16T22:27:12.983Z,14.63
2018-05-16T22:31:27.477Z,11.30
2018-05-16T22:35:37.108Z,13.60
2018-05-16T22:39:45.788Z,16.13
2018-05-16T22:43:55.492Z,14.47
2018-05-16T22:47:59.168Z,7.47
2018-05-16T22:52:08.830Z,12.73
2018-05-16T22:56:14.843Z,11.53
2018-05-16T23:00:25.669Z,17.07
2018-05-16T23:04:34.984Z,17.33
2018-05-16T23:08:46.403Z,20.30
2018-05-16T23:12:52.816Z,21.20
2018-05-16T23:17:01.924Z,23.13
2018-05-16T23:21:09.031Z,14.97
2018-05-16T23:25:20.022Z,17.17
2018-05-16T23:29:30.403Z,18.83
2018-05-16T23:33:36.394Z,16.07
2018-05-16T23:37:47.391Z,12.17
2018-05-16T23:41:51.610Z,21.20
2018-05-16T23:46:04.402Z,14.97
2018-05-16T23:50:16.098Z,9.37
2018-05-16T23:54:22.051Z,12.07
2018-05-16T23:58:37.541Z,18.37
